createdAt,value
2018-06-03T00:00:05.364Z,16.90
2018-06-03T00:01:06.220Z,16.90
2018-06-03T00:02:08.385Z,16.90
2018-06-03T00:03:05.934Z,16.90
2018-06-03T00:04:06.568Z,17.00
2018-06-03T00:05:05.755Z,17.00
2018-06-03T00:06:08.202Z,16.90
2018-06-03T00:07:05.755Z,16.90
2018-06-03T00:08:05.620Z,16.90
2018-06-03T00:09:08.003Z,16.90
2018-06-03T00:10:10.614Z,16.90
2018-06-03T00:11:05.428Z,16.90
2018-06-03T00:12:10.705Z,16.90
2018-06-03T00:13:06.302Z,16.90
2018-06-03T00:14:11.278Z,16.90
2018-06-03T00:15:05.939Z,16.80
2018-06-03T00:16:05.776Z,16.80
2018-06-03T00:17:08.360Z,16.90
2018-06-03T00:18:05.875Z,16.80
2018-06-03T00:19:05.361Z,16.80
2018-06-03T00:20:10.597Z,16.80
2018-06-03T00:21:10.144Z,16.80
2018-06-03T00:22:10.704Z,16.80
2018-06-03T00:23:05.476Z,16.70
2018-06-03T00:24:10.507Z,16.70
2018-06-03T00:25:06.089Z,16.70
2018-06-03T00:26:05.894Z,16.70
2018-06-03T00:27:05.624Z,16.70
2018-06-03T00:28:10.591Z,16.70
2018-06-03T00:29:08.699Z,16.70
2018-06-03T00:30:05.543Z,16.60
2018-06-03T00:31:05.576Z,16.70
2018-06-03T00:32:10.545Z,16.60
2018-06-03T00:33:05.658Z,16.60
2018-06-03T00:34:05.891Z,16.60
2018-06-03T00:35:10.672Z,16.60
2018-06-03T00:36:11.169Z,16.60
2018-06-03T00:37:06.219Z,16.60
2018-06-03T00:38:11.945Z,16.60
2018-06-03T00:39:05.526Z,16.60
2018-06-03T00:40:08.198Z,16.50
2018-06-03T00:41:05.832Z,16.50
2018-06-03T00:42:05.657Z,16.50
2018-06-03T00:43:05.533Z,16.50
2018-06-03T00:44:05.641Z,16.50
2018-06-03T00:45:05.302Z,16.50
2018-06-03T00:46:08.635Z,16.50
2018-06-03T00:47:10.784Z,16.50
2018-06-03T00:48:11.102Z,16.50
2018-06-03T00:49:10.990Z,16.40
2018-06-03T00:50:05.520Z,16.40
2018-06-03T00:51:05.175Z,16.40
2018-06-03T00:52:10.445Z,16.40
2018-06-03T00:53:05.869Z,16.40
2018-06-03T00:54:05.969Z,16.40
2018-06-03T00:55:05.753Z,16.40
2018-06-03T00:56:10.753Z,16.40
2018-06-03T00:57:05.347Z,16.40
2018-06-03T00:58:12.953Z,16.30
2018-06-03T00:59:05.599Z,16.30
2018-06-03T01:00:08.166Z,16.40
2018-06-03T01:01:05.731Z,16.40
2018-06-03T01:02:07.988Z,16.30
2018-06-03T01:03:10.675Z,16.30
2018-06-03T01:04:10.411Z,16.30
2018-06-03T01:05:05.281Z,16.30
2018-06-03T01:06:05.355Z,16.30
2018-06-03T01:07:05.507Z,16.30
2018-06-03T01:08:05.803Z,16.30
2018-06-03T01:09:05.622Z,16.30
2018-06-03T01:10:10.497Z,16.30
2018-06-03T01:11:08.499Z,16.30
2018-06-03T01:12:11.172Z,16.30
2018-06-03T01:13:10.755Z,16.30
2018-06-03T01:14:10.410Z,16.30
2018-06-03T01:15:06.318Z,16.20
2018-06-03T01:16:06.182Z,16.30
2018-06-03T01:17:08.517Z,16.20
2018-06-03T01:18:11.231Z,16.20
2018-06-03T01:19:05.806Z,16.20
2018-06-03T01:20:10.733Z,16.20
2018-06-03T01:21:10.464Z,16.20
2018-06-03T01:22:13.774Z,16.20
2018-06-03T01:23:05.404Z,16.10
2018-06-03T01:24:06.158Z,16.20
2018-06-03T01:25:11.074Z,16.10
2018-06-03T01:26:10.785Z,16.10
2018-06-03T01:27:05.416Z,16.10
2018-06-03T01:28:05.747Z,16.10
2018-06-03T01:29:05.698Z,16.10
2018-06-03T01:30:08.222Z,16.10
2018-06-03T01:31:06.057Z,16.00
2018-06-03T01:32:10.847Z,16.00
2018-06-03T01:33:05.331Z,16.00
2018-06-03T01:34:10.568Z,16.00
2018-06-03T01:35:06.170Z,16.00
2018-06-03T01:36:11.204Z,16.00
2018-06-03T01:37:05.737Z,16.00
2018-06-03T01:38:05.773Z,16.00
2018-06-03T01:39:08.220Z,16.00
2018-06-03T01:40:08.257Z,16.00
2018-06-03T01:41:05.772Z,15.90
2018-06-03T01:42:05.542Z,16.00
2018-06-03T01:43:08.780Z,15.90
2018-06-03T01:44:11.038Z,15.90
2018-06-03T01:45:10.522Z,15.90
2018-06-03T01:46:11.194Z,15.90
2018-06-03T01:47:05.742Z,15.90
2018-06-03T01:48:13.096Z,15.90
2018-06-03T01:49:05.786Z,15.80
2018-06-03T01:50:05.170Z,15.80
2018-06-03T01:51:06.111Z,15.90
2018-06-03T01:52:06.114Z,15.80
2018-06-03T01:53:08.352Z,15.80
2018-06-03T01:54:06.335Z,15.70
2018-06-03T01:55:05.509Z,15.80
2018-06-03T01:56:10.625Z,15.80
2018-06-03T01:57:11.190Z,15.70
2018-06-03T01:58:08.290Z,15.70
2018-06-03T01:59:06.264Z,15.70
2018-06-03T02:00:08.345Z,15.70
2018-06-03T02:01:06.158Z,15.70
2018-06-03T02:02:13.424Z,15.60
2018-06-03T02:03:06.401Z,15.70
2018-06-03T02:04:05.974Z,15.70
2018-06-03T02:05:05.623Z,15.70
2018-06-03T02:06:05.579Z,15.70
2018-06-03T02:07:05.281Z,15.70
2018-06-03T02:08:05.508Z,15.70
2018-06-03T02:09:05.697Z,15.60
2018-06-03T02:10:12.963Z,15.60
2018-06-03T02:11:10.637Z,15.60
2018-06-03T02:12:05.950Z,15.60
2018-06-03T02:13:05.603Z,15.60
2018-06-03T02:14:05.837Z,15.60
2018-06-03T02:15:08.460Z,15.50
2018-06-03T02:16:08.552Z,15.50
2018-06-03T02:17:08.853Z,15.50
2018-06-03T02:18:05.338Z,15.50
2018-06-03T02:19:10.271Z,15.50
2018-06-03T02:20:08.319Z,15.50
2018-06-03T02:21:10.960Z,15.40
2018-06-03T02:22:05.504Z,15.40
2018-06-03T02:23:10.936Z,15.40
2018-06-03T02:24:06.058Z,15.40
2018-06-03T02:25:08.212Z,15.40
2018-06-03T02:26:06.169Z,15.40
2018-06-03T02:27:08.621Z,15.40
2018-06-03T02:28:06.068Z,15.40
2018-06-03T02:29:05.967Z,15.40
2018-06-03T02:30:06.474Z,15.40
2018-06-03T02:31:05.273Z,15.40
2018-06-03T02:32:05.578Z,15.40
2018-06-03T02:33:05.798Z,15.40
2018-06-03T02:34:05.578Z,15.30
2018-06-03T02:35:05.310Z,15.30
2018-06-03T02:36:11.496Z,15.30
2018-06-03T02:37:13.539Z,15.30
2018-06-03T02:38:08.573Z,15.30
2018-06-03T02:39:06.579Z,15.20
2018-06-03T02:40:05.479Z,15.20
2018-06-03T02:41:07.791Z,15.30
2018-06-03T02:42:08.075Z,15.20
2018-06-03T02:43:05.764Z,15.20
2018-06-03T02:44:05.239Z,15.20
2018-06-03T02:45:06.119Z,15.20
2018-06-03T02:46:10.887Z,15.20
2018-06-03T02:47:05.404Z,15.20
2018-06-03T02:48:05.496Z,15.10
2018-06-03T02:49:05.519Z,15.10
2018-06-03T02:50:07.989Z,15.10
2018-06-03T02:51:05.546Z,15.10
2018-06-03T02:52:05.849Z,15.10
2018-06-03T02:53:10.613Z,15.10
2018-06-03T02:54:05.841Z,15.10
2018-06-03T02:55:05.885Z,15.10
2018-06-03T02:56:05.571Z,15.10
2018-06-03T02:57:05.715Z,15.10
2018-06-03T02:58:05.789Z,15.10
2018-06-03T02:59:08.730Z,15.00
2018-06-03T03:00:10.392Z,15.10
2018-06-03T03:01:05.884Z,15.00
2018-06-03T03:02:05.802Z,15.00
2018-06-03T03:03:10.321Z,15.00
2018-06-03T03:04:08.368Z,15.00
2018-06-03T03:05:06.212Z,15.00
2018-06-03T03:06:05.971Z,15.00
2018-06-03T03:07:06.634Z,15.00
2018-06-03T03:08:05.431Z,15.00
2018-06-03T03:09:08.694Z,15.00
2018-06-03T03:10:10.315Z,15.00
2018-06-03T03:11:05.842Z,15.00
2018-06-03T03:12:05.661Z,15.00
2018-06-03T03:13:05.789Z,15.00
2018-06-03T03:14:05.549Z,15.00
2018-06-03T03:15:05.379Z,15.00
2018-06-03T03:16:06.373Z,15.00
2018-06-03T03:17:11.097Z,14.90
2018-06-03T03:18:08.137Z,15.00
2018-06-03T03:19:05.582Z,14.90
2018-06-03T03:20:10.729Z,15.00
2018-06-03T03:21:06.200Z,14.90
2018-06-03T03:22:07.830Z,14.90
2018-06-03T03:23:08.070Z,14.90
2018-06-03T03:24:11.051Z,14.90
2018-06-03T03:25:05.674Z,15.00
2018-06-03T03:26:07.808Z,15.00
2018-06-03T03:27:05.853Z,14.90
2018-06-03T03:28:06.033Z,15.00
2018-06-03T03:29:08.443Z,15.00
2018-06-03T03:30:12.564Z,15.00
2018-06-03T03:31:08.111Z,15.00
2018-06-03T03:32:05.189Z,15.00
2018-06-03T03:33:05.252Z,15.00
2018-06-03T03:34:07.992Z,15.00
2018-06-03T03:35:06.665Z,15.00
2018-06-03T03:36:08.053Z,15.00
2018-06-03T03:37:05.585Z,15.00
2018-06-03T03:38:05.564Z,15.00
2018-06-03T03:39:05.970Z,15.10
2018-06-03T03:40:05.799Z,15.10
2018-06-03T03:41:08.184Z,15.10
2018-06-03T03:42:10.486Z,15.10
2018-06-03T03:43:05.881Z,15.10
2018-06-03T03:44:08.252Z,15.10
2018-06-03T03:45:05.778Z,15.10
2018-06-03T03:46:05.797Z,15.10
2018-06-03T03:47:10.462Z,15.10
2018-06-03T03:48:05.990Z,15.10
2018-06-03T03:49:05.920Z,15.10
2018-06-03T03:50:05.866Z,15.10
2018-06-03T03:51:07.982Z,15.20
2018-06-03T03:52:05.440Z,15.20
2018-06-03T03:53:05.553Z,15.20
2018-06-03T03:54:05.599Z,15.20
2018-06-03T03:55:07.913Z,15.20
2018-06-03T03:56:05.839Z,15.20
2018-06-03T03:57:07.949Z,15.20
2018-06-03T03:58:10.643Z,15.20
2018-06-03T03:59:07.723Z,15.20
2018-06-03T04:00:08.861Z,15.20
2018-06-03T04:01:07.877Z,15.20
2018-06-03T04:02:12.960Z,15.30
2018-06-03T04:03:05.506Z,15.30
2018-06-03T04:04:05.248Z,15.30
2018-06-03T04:05:06.074Z,15.20
2018-06-03T04:06:05.804Z,15.30
2018-06-03T04:07:05.825Z,15.30
2018-06-03T04:08:05.839Z,15.30
2018-06-03T04:09:06.113Z,15.30
2018-06-03T04:10:08.263Z,15.30
2018-06-03T04:11:05.876Z,15.30
2018-06-03T04:12:08.614Z,15.40
2018-06-03T04:13:05.608Z,15.40
2018-06-03T04:14:05.463Z,15.50
2018-06-03T04:15:08.625Z,15.40
2018-06-03T04:16:06.203Z,15.50
2018-06-03T04:17:08.305Z,15.60
2018-06-03T04:18:08.414Z,15.60
2018-06-03T04:19:05.855Z,15.50
2018-06-03T04:20:08.320Z,15.60
2018-06-03T04:21:05.906Z,15.60
2018-06-03T04:22:05.596Z,15.60
2018-06-03T04:23:05.517Z,15.70
2018-06-03T04:24:05.891Z,15.70
2018-06-03T04:25:11.425Z,15.80
2018-06-03T04:26:08.129Z,15.90
2018-06-03T04:27:06.706Z,15.90
2018-06-03T04:28:10.697Z,16.00
2018-06-03T04:29:06.329Z,16.00
2018-06-03T04:30:06.059Z,16.00
2018-06-03T04:31:06.331Z,16.10
2018-06-03T04:32:05.911Z,16.10
2018-06-03T04:33:05.866Z,16.20
2018-06-03T04:34:05.917Z,16.30
2018-06-03T04:35:06.141Z,16.30
2018-06-03T04:36:08.087Z,16.50
2018-06-03T04:37:08.166Z,16.60
2018-06-03T04:38:06.319Z,16.60
2018-06-03T04:39:15.292Z,16.80
2018-06-03T04:40:05.714Z,16.80
2018-06-03T04:41:06.413Z,16.90
2018-06-03T04:42:08.901Z,17.10
2018-06-03T04:43:05.929Z,17.10
2018-06-03T04:44:08.497Z,17.30
2018-06-03T04:45:08.671Z,17.50
2018-06-03T04:46:06.160Z,17.50
2018-06-03T04:47:05.872Z,17.60
2018-06-03T04:48:08.054Z,17.80
2018-06-03T04:49:05.401Z,17.80
2018-06-03T04:50:08.103Z,18.10
2018-06-03T04:51:05.657Z,18.00
2018-06-03T04:52:05.764Z,18.10
2018-06-03T04:53:10.416Z,18.30
2018-06-03T04:54:05.805Z,18.30
2018-06-03T04:55:05.446Z,18.40
2018-06-03T04:56:10.747Z,18.60
2018-06-03T04:57:05.233Z,18.60
2018-06-03T04:58:05.504Z,18.70
2018-06-03T04:59:05.623Z,18.80
2018-06-03T05:00:06.909Z,18.80
2018-06-03T05:01:05.941Z,19.00
2018-06-03T05:02:07.988Z,19.20
2018-06-03T05:03:05.556Z,19.10
2018-06-03T05:04:11.018Z,19.20
2018-06-03T05:05:05.510Z,19.30
2018-06-03T05:06:08.637Z,19.50
2018-06-03T05:07:06.168Z,19.50
2018-06-03T05:08:05.808Z,19.50
2018-06-03T05:09:06.612Z,19.60
2018-06-03T05:10:10.912Z,19.70
2018-06-03T05:11:07.943Z,19.80
2018-06-03T05:12:05.772Z,19.80
2018-06-03T05:13:05.976Z,19.90
2018-06-03T05:14:08.149Z,19.90
2018-06-03T05:15:05.769Z,19.90
2018-06-03T05:16:05.625Z,19.90
2018-06-03T05:17:05.560Z,20.00
2018-06-03T05:18:05.768Z,20.00
2018-06-03T05:19:05.994Z,20.00
2018-06-03T05:20:05.612Z,20.10
2018-06-03T05:21:06.107Z,20.10
2018-06-03T05:22:06.263Z,20.10
2018-06-03T05:23:11.093Z,20.20
2018-06-03T05:24:06.133Z,20.20
2018-06-03T05:25:05.710Z,20.20
2018-06-03T05:26:08.106Z,20.30
2018-06-03T05:27:05.838Z,20.20
2018-06-03T05:28:08.298Z,20.30
2018-06-03T05:29:05.790Z,20.30
2018-06-03T05:30:10.642Z,20.30
2018-06-03T05:31:10.404Z,20.40
2018-06-03T05:32:08.535Z,20.50
2018-06-03T05:33:06.024Z,20.40
2018-06-03T05:34:10.766Z,20.60
2018-06-03T05:35:05.451Z,20.50
2018-06-03T05:36:10.272Z,20.60
2018-06-03T05:37:05.944Z,20.60
2018-06-03T05:38:05.640Z,20.60
2018-06-03T05:39:05.866Z,20.70
2018-06-03T05:40:08.086Z,20.70
2018-06-03T05:41:05.972Z,20.70
2018-06-03T05:42:05.996Z,20.70
2018-06-03T05:43:06.210Z,20.70
2018-06-03T05:44:05.995Z,20.80
2018-06-03T05:45:08.641Z,20.90
2018-06-03T05:46:06.391Z,20.90
2018-06-03T05:47:09.009Z,21.10
2018-06-03T05:48:05.802Z,21.10
2018-06-03T05:49:08.189Z,21.20
2018-06-03T05:50:05.873Z,21.30
2018-06-03T05:51:08.287Z,21.50
2018-06-03T05:52:08.702Z,21.60
2018-06-03T05:53:07.930Z,21.70
2018-06-03T05:54:10.620Z,21.80
2018-06-03T05:55:11.337Z,21.80
2018-06-03T05:56:06.693Z,21.90
2018-06-03T05:57:05.583Z,22.00
2018-06-03T05:58:07.246Z,22.10
2018-06-03T05:59:05.847Z,22.20
2018-06-03T06:00:05.473Z,22.30
2018-06-03T06:01:05.907Z,22.30
2018-06-03T06:02:13.171Z,22.40
2018-06-03T06:03:05.760Z,22.40
2018-06-03T06:04:08.074Z,22.50
2018-06-03T06:05:08.348Z,22.50
2018-06-03T06:06:08.469Z,22.50
2018-06-03T06:07:13.552Z,22.60
2018-06-03T06:08:06.050Z,22.60
2018-06-03T06:09:05.916Z,22.70
2018-06-03T06:10:11.872Z,22.90
2018-06-03T06:11:08.012Z,23.00
2018-06-03T06:12:05.536Z,23.00
2018-06-03T06:13:05.590Z,23.10
2018-06-03T06:14:05.476Z,23.20
2018-06-03T06:15:06.302Z,23.30
2018-06-03T06:16:06.039Z,23.40
2018-06-03T06:17:06.004Z,23.50
2018-06-03T06:18:05.987Z,23.50
2018-06-03T06:19:08.282Z,23.70
2018-06-03T06:20:05.704Z,23.60
2018-06-03T06:21:06.236Z,23.80
2018-06-03T06:22:08.662Z,23.90
2018-06-03T06:23:06.528Z,23.90
2018-06-03T06:24:05.182Z,24.00
2018-06-03T06:25:13.878Z,24.10
2018-06-03T06:26:05.530Z,24.10
2018-06-03T06:27:08.978Z,24.20
2018-06-03T06:28:05.979Z,24.20
2018-06-03T06:29:06.103Z,24.30
2018-06-03T06:30:10.298Z,24.40
2018-06-03T06:31:06.278Z,24.40
2018-06-03T06:32:06.365Z,24.40
2018-06-03T06:33:06.616Z,24.50
2018-06-03T06:34:08.202Z,24.60
2018-06-03T06:35:05.642Z,24.50
2018-06-03T06:36:05.817Z,24.60
2018-06-03T06:37:05.722Z,24.70
2018-06-03T06:38:10.473Z,24.70
2018-06-03T06:39:06.069Z,24.80
2018-06-03T06:40:05.662Z,24.80
2018-06-03T06:41:05.414Z,24.90
2018-06-03T06:42:10.409Z,24.90
2018-06-03T06:43:05.777Z,24.90
2018-06-03T06:44:07.100Z,25.00
2018-06-03T06:45:05.790Z,25.00
2018-06-03T06:46:05.437Z,25.00
2018-06-03T06:47:06.022Z,25.10
2018-06-03T06:48:05.634Z,25.10
2018-06-03T06:49:05.222Z,25.10
2018-06-03T06:50:06.301Z,25.10
2018-06-03T06:51:05.546Z,25.20
2018-06-03T06:52:10.481Z,25.30
2018-06-03T06:53:08.071Z,25.30
2018-06-03T06:54:08.213Z,25.40
2018-06-03T06:55:05.760Z,25.40
2018-06-03T06:56:05.747Z,25.40
2018-06-03T06:57:15.526Z,25.40
2018-06-03T06:58:08.779Z,25.50
2018-06-03T06:59:05.526Z,25.40
2018-06-03T07:00:05.596Z,25.50
2018-06-03T07:01:10.420Z,25.50
2018-06-03T07:02:08.505Z,25.60
2018-06-03T07:03:08.581Z,25.60
2018-06-03T07:04:06.248Z,25.60
2018-06-03T07:05:05.991Z,25.60
2018-06-03T07:06:08.242Z,25.60
2018-06-03T07:07:10.812Z,25.70
2018-06-03T07:08:05.558Z,25.70
2018-06-03T07:09:05.579Z,25.70
2018-06-03T07:10:05.769Z,25.80
2018-06-03T07:11:10.640Z,25.90
2018-06-03T07:12:08.834Z,25.90
2018-06-03T07:13:08.014Z,26.00
2018-06-03T07:14:13.415Z,26.00
2018-06-03T07:15:06.001Z,26.00
2018-06-03T07:16:08.290Z,26.00
2018-06-03T07:17:08.401Z,26.00
2018-06-03T07:18:08.497Z,26.10
2018-06-03T07:19:08.607Z,26.10
2018-06-03T07:20:06.855Z,26.10
2018-06-03T07:21:05.893Z,26.10
2018-06-03T07:22:06.304Z,26.20
2018-06-03T07:23:05.993Z,26.20
2018-06-03T07:24:05.872Z,26.20
2018-06-03T07:25:05.716Z,26.20
2018-06-03T07:26:05.563Z,26.30
2018-06-03T07:27:08.066Z,26.20
2018-06-03T07:28:05.591Z,26.20
2018-06-03T07:29:07.993Z,26.30
2018-06-03T07:30:08.125Z,26.20
2018-06-03T07:31:08.214Z,26.20
2018-06-03T07:32:05.870Z,26.20
2018-06-03T07:33:05.548Z,26.20
2018-06-03T07:34:05.391Z,26.20
2018-06-03T07:35:13.024Z,26.40
2018-06-03T07:36:10.828Z,26.40
2018-06-03T07:37:10.687Z,26.40
2018-06-03T07:38:08.797Z,26.40
2018-06-03T07:39:07.963Z,26.40
2018-06-03T07:40:10.481Z,26.40
2018-06-03T07:41:08.697Z,26.50
2018-06-03T07:42:07.977Z,26.50
2018-06-03T07:43:10.487Z,26.50
2018-06-03T07:44:10.947Z,26.50
2018-06-03T07:45:05.611Z,26.50
2018-06-03T07:46:10.402Z,26.50
2018-06-03T07:47:05.884Z,26.50
2018-06-03T07:48:05.672Z,26.50
2018-06-03T07:49:08.263Z,26.60
2018-06-03T07:50:05.762Z,26.50
2018-06-03T07:51:05.861Z,26.50
2018-06-03T07:52:08.304Z,26.40
2018-06-03T07:53:05.874Z,26.40
2018-06-03T07:54:05.708Z,26.40
2018-06-03T07:55:08.179Z,26.40
2018-06-03T07:56:05.588Z,26.40
2018-06-03T07:57:05.239Z,26.30
2018-06-03T07:58:05.985Z,26.40
2018-06-03T07:59:05.824Z,26.30
2018-06-03T08:00:05.975Z,26.30
2018-06-03T08:01:08.230Z,26.40
2018-06-03T08:02:06.163Z,26.40
2018-06-03T08:03:05.818Z,26.40
2018-06-03T08:04:05.763Z,26.50
2018-06-03T08:05:05.883Z,26.50
2018-06-03T08:06:05.926Z,26.60
2018-06-03T08:07:08.692Z,26.50
2018-06-03T08:08:05.231Z,26.60
2018-06-03T08:09:05.389Z,26.50
2018-06-03T08:10:10.475Z,26.50
2018-06-03T08:11:06.011Z,26.50
2018-06-03T08:12:10.678Z,26.40
2018-06-03T08:13:05.697Z,26.40
2018-06-03T08:14:05.408Z,26.40
2018-06-03T08:15:05.711Z,26.30
2018-06-03T08:16:08.101Z,26.10
2018-06-03T08:17:06.046Z,26.00
2018-06-03T08:18:08.005Z,26.00
2018-06-03T08:19:05.726Z,25.90
2018-06-03T08:20:05.581Z,25.90
2018-06-03T08:21:10.379Z,26.00
2018-06-03T08:22:08.682Z,26.00
2018-06-03T08:23:10.356Z,26.10
2018-06-03T08:24:05.893Z,26.10
2018-06-03T08:25:08.148Z,26.00
2018-06-03T08:26:05.658Z,26.00
2018-06-03T08:27:10.757Z,25.90
2018-06-03T08:28:05.303Z,25.90
2018-06-03T08:29:05.373Z,25.80
2018-06-03T08:30:05.343Z,25.70
2018-06-03T08:31:06.657Z,25.70
2018-06-03T08:32:07.826Z,25.60
2018-06-03T08:33:05.918Z,25.50
2018-06-03T08:34:08.359Z,25.60
2018-06-03T08:35:06.048Z,25.60
2018-06-03T08:36:08.771Z,25.70
2018-06-03T08:37:08.184Z,25.70
2018-06-03T08:38:06.050Z,25.70
2018-06-03T08:39:05.641Z,25.70
2018-06-03T08:40:10.690Z,25.50
2018-06-03T08:41:05.290Z,25.50
2018-06-03T08:42:08.208Z,25.50
2018-06-03T08:43:08.320Z,25.50
2018-06-03T08:44:08.313Z,25.50
2018-06-03T08:45:05.885Z,25.50
2018-06-03T08:46:08.081Z,25.60
2018-06-03T08:47:10.585Z,25.60
2018-06-03T08:48:06.249Z,25.60
2018-06-03T08:49:06.345Z,25.70
2018-06-03T08:50:05.658Z,25.60
2018-06-03T08:51:05.855Z,25.60
2018-06-03T08:52:06.128Z,25.70
2018-06-03T08:53:10.362Z,25.50
2018-06-03T08:54:05.808Z,25.60
2018-06-03T08:55:05.617Z,25.60
2018-06-03T08:56:06.116Z,25.60
2018-06-03T08:57:06.199Z,25.50
2018-06-03T08:58:06.318Z,25.60
2018-06-03T08:59:06.179Z,25.60
2018-06-03T09:00:08.317Z,25.50
2018-06-03T09:01:08.650Z,25.50
2018-06-03T09:02:05.199Z,25.50
2018-06-03T09:03:08.541Z,25.50
2018-06-03T09:04:08.748Z,25.50
2018-06-03T09:05:05.429Z,25.50
2018-06-03T09:06:05.646Z,25.50
2018-06-03T09:07:05.600Z,25.40
2018-06-03T09:08:05.235Z,25.40
2018-06-03T09:09:06.062Z,25.40
2018-06-03T09:10:05.950Z,25.40
2018-06-03T09:11:05.864Z,25.30
2018-06-03T09:12:06.751Z,25.30
2018-06-03T09:13:05.840Z,25.20
2018-06-03T09:14:05.979Z,25.20
2018-06-03T09:15:05.615Z,25.20
2018-06-03T09:16:10.602Z,25.10
2018-06-03T09:17:06.277Z,25.10
2018-06-03T09:18:07.920Z,25.10
2018-06-03T09:19:05.706Z,25.10
2018-06-03T09:20:05.644Z,25.10
2018-06-03T09:21:10.426Z,25.00
2018-06-03T09:22:06.096Z,25.00
2018-06-03T09:23:08.353Z,25.10
2018-06-03T09:24:05.892Z,25.00
2018-06-03T09:25:06.262Z,25.00
2018-06-03T09:26:12.382Z,25.10
2018-06-03T09:27:06.035Z,25.10
2018-06-03T09:28:05.753Z,25.10
2018-06-03T09:29:05.935Z,25.20
2018-06-03T09:30:05.761Z,25.20
2018-06-03T09:31:05.465Z,25.20
2018-06-03T09:32:10.980Z,25.20
2018-06-03T09:33:05.495Z,25.20
2018-06-03T09:34:06.241Z,25.20
2018-06-03T09:35:05.948Z,25.10
2018-06-03T09:36:08.341Z,25.10
2018-06-03T09:37:05.989Z,25.10
2018-06-03T09:38:06.061Z,25.00
2018-06-03T09:39:10.794Z,24.90
2018-06-03T09:40:05.809Z,24.90
2018-06-03T09:41:05.948Z,24.90
2018-06-03T09:42:05.865Z,24.90
2018-06-03T09:43:05.633Z,24.90
2018-06-03T09:44:11.052Z,25.00
2018-06-03T09:45:10.739Z,24.90
2018-06-03T09:46:10.298Z,25.00
2018-06-03T09:47:08.424Z,25.10
2018-06-03T09:48:06.050Z,25.10
2018-06-03T09:49:05.831Z,25.10
2018-06-03T09:50:20.952Z,25.20
2018-06-03T09:51:05.517Z,25.20
2018-06-03T09:52:05.552Z,25.20
2018-06-03T09:53:06.302Z,25.30
2018-06-03T09:54:06.156Z,25.40
2018-06-03T09:55:05.885Z,25.40
2018-06-03T09:56:06.249Z,25.50
2018-06-03T09:57:13.482Z,25.50
2018-06-03T09:58:11.080Z,25.50
2018-06-03T09:59:05.682Z,25.50
2018-06-03T10:00:07.959Z,25.50
2018-06-03T10:01:08.048Z,25.50
2018-06-03T10:02:05.622Z,25.50
2018-06-03T10:03:05.497Z,25.50
2018-06-03T10:04:05.347Z,25.40
2018-06-03T10:05:08.716Z,25.40
2018-06-03T10:06:05.529Z,25.40
2018-06-03T10:07:05.354Z,25.40
2018-06-03T10:08:06.231Z,25.30
2018-06-03T10:09:05.373Z,25.30
2018-06-03T10:10:06.038Z,25.30
2018-06-03T10:11:05.549Z,25.30
2018-06-03T10:12:08.169Z,25.30
2018-06-03T10:13:05.722Z,25.30
2018-06-03T10:14:07.865Z,25.40
2018-06-03T10:15:10.439Z,25.40
2018-06-03T10:16:08.441Z,25.50
2018-06-03T10:17:06.132Z,25.50
2018-06-03T10:18:11.254Z,25.60
2018-06-03T10:19:06.152Z,25.60
2018-06-03T10:20:05.959Z,25.60
2018-06-03T10:21:08.382Z,25.70
2018-06-03T10:22:06.300Z,25.70
2018-06-03T10:23:05.914Z,25.70
2018-06-03T10:24:06.721Z,25.80
2018-06-03T10:25:08.005Z,25.80
2018-06-03T10:26:05.717Z,25.80
2018-06-03T10:27:05.813Z,25.80
2018-06-03T10:28:05.820Z,25.90
2018-06-03T10:29:05.506Z,25.90
2018-06-03T10:30:10.852Z,25.90
2018-06-03T10:31:05.536Z,26.00
2018-06-03T10:32:05.352Z,25.90
2018-06-03T10:33:08.315Z,26.00
2018-06-03T10:34:08.334Z,26.00
2018-06-03T10:35:08.379Z,26.20
2018-06-03T10:36:08.628Z,26.20
2018-06-03T10:37:06.079Z,26.20
2018-06-03T10:38:06.042Z,26.20
2018-06-03T10:39:06.341Z,26.20
2018-06-03T10:40:05.327Z,26.30
2018-06-03T10:41:06.714Z,26.40
2018-06-03T10:42:08.175Z,26.50
2018-06-03T10:43:10.931Z,26.50
2018-06-03T10:44:11.229Z,26.50
2018-06-03T10:45:05.721Z,26.50
2018-06-03T10:46:05.338Z,26.60
2018-06-03T10:47:05.451Z,26.60
2018-06-03T10:48:06.209Z,26.60
2018-06-03T10:49:05.964Z,26.70
2018-06-03T10:50:05.794Z,26.60
2018-06-03T10:51:05.497Z,26.60
2018-06-03T10:52:10.521Z,26.60
2018-06-03T10:53:11.334Z,26.60
2018-06-03T10:54:06.026Z,26.60
2018-06-03T10:55:06.116Z,26.60
2018-06-03T10:56:06.205Z,26.70
2018-06-03T10:57:08.458Z,26.80
2018-06-03T10:58:05.480Z,26.80
2018-06-03T10:59:05.538Z,26.80
2018-06-03T11:00:08.358Z,26.80
2018-06-03T11:01:10.957Z,26.80
2018-06-03T11:02:05.833Z,26.80
2018-06-03T11:03:06.220Z,26.80
2018-06-03T11:04:08.805Z,26.80
2018-06-03T11:05:12.972Z,26.80
2018-06-03T11:06:08.123Z,26.80
2018-06-03T11:07:05.654Z,26.80
2018-06-03T11:08:05.821Z,26.80
2018-06-03T11:09:05.694Z,26.80
2018-06-03T11:10:05.610Z,26.90
2018-06-03T11:11:08.376Z,26.90
2018-06-03T11:12:05.973Z,26.90
2018-06-03T11:13:06.207Z,26.90
2018-06-03T11:14:06.010Z,26.80
2018-06-03T11:15:10.782Z,26.90
2018-06-03T11:16:05.472Z,26.80
2018-06-03T11:17:05.284Z,26.80
2018-06-03T11:18:07.927Z,26.80
2018-06-03T11:19:05.504Z,26.80
2018-06-03T11:20:08.194Z,26.80
2018-06-03T11:21:05.745Z,26.80
2018-06-03T11:22:05.885Z,26.80
2018-06-03T11:23:05.579Z,26.80
2018-06-03T11:24:10.711Z,26.70
2018-06-03T11:25:08.576Z,26.70
2018-06-03T11:26:06.666Z,26.60
2018-06-03T11:27:05.815Z,26.60
2018-06-03T11:28:05.576Z,26.60
2018-06-03T11:29:07.762Z,26.60
2018-06-03T11:30:08.100Z,26.60
2018-06-03T11:31:10.802Z,26.70
2018-06-03T11:32:05.364Z,26.70
2018-06-03T11:33:06.125Z,26.80
2018-06-03T11:34:08.753Z,26.90
2018-06-03T11:35:07.979Z,26.90
2018-06-03T11:36:05.547Z,26.90
2018-06-03T11:37:08.332Z,27.00
2018-06-03T11:38:05.981Z,26.90
2018-06-03T11:39:05.989Z,27.00
2018-06-03T11:40:05.650Z,27.00
2018-06-03T11:41:05.719Z,27.00
2018-06-03T11:42:06.009Z,27.10
2018-06-03T11:43:06.024Z,27.20
2018-06-03T11:44:05.511Z,27.20
2018-06-03T11:45:05.426Z,27.20
2018-06-03T11:46:06.116Z,27.20
2018-06-03T11:47:05.815Z,27.30
2018-06-03T11:48:05.690Z,27.30
2018-06-03T11:49:10.619Z,27.20
2018-06-03T11:50:06.272Z,27.20
2018-06-03T11:51:05.861Z,27.10
2018-06-03T11:52:05.453Z,27.00
2018-06-03T11:53:05.324Z,26.90
2018-06-03T11:54:06.182Z,26.70
2018-06-03T11:55:05.918Z,26.60
2018-06-03T11:56:08.438Z,26.40
2018-06-03T11:57:08.842Z,26.40
2018-06-03T11:58:10.747Z,26.30
2018-06-03T11:59:05.184Z,26.30
2018-06-03T12:00:05.345Z,26.30
2018-06-03T12:01:05.564Z,26.40
2018-06-03T12:02:05.300Z,26.30
2018-06-03T12:03:05.312Z,26.40
2018-06-03T12:04:05.527Z,26.40
2018-06-03T12:05:05.300Z,26.50
2018-06-03T12:06:10.415Z,26.60
2018-06-03T12:07:06.034Z,26.60
2018-06-03T12:08:06.031Z,26.70
2018-06-03T12:09:10.796Z,26.80
2018-06-03T12:10:05.505Z,26.80
2018-06-03T12:11:06.148Z,26.90
2018-06-03T12:12:05.711Z,27.00
2018-06-03T12:13:05.132Z,27.10
2018-06-03T12:14:11.318Z,27.20
2018-06-03T12:15:08.436Z,27.30
2018-06-03T12:16:08.401Z,27.40
2018-06-03T12:17:05.926Z,27.40
2018-06-03T12:18:06.057Z,27.40
2018-06-03T12:19:05.949Z,27.50
2018-06-03T12:20:08.189Z,27.60
2018-06-03T12:21:05.858Z,27.60
2018-06-03T12:22:05.541Z,27.60
2018-06-03T12:23:05.355Z,27.60
2018-06-03T12:24:10.689Z,27.50
2018-06-03T12:25:15.398Z,27.40
2018-06-03T12:26:05.416Z,27.40
2018-06-03T12:27:05.201Z,27.40
2018-06-03T12:28:05.994Z,27.40
2018-06-03T12:29:05.723Z,27.30
2018-06-03T12:30:05.361Z,27.30
2018-06-03T12:31:05.662Z,27.20
2018-06-03T12:32:13.697Z,27.20
2018-06-03T12:33:05.465Z,27.20
2018-06-03T12:34:06.252Z,27.10
2018-06-03T12:35:08.134Z,27.00
2018-06-03T12:36:05.699Z,27.00
2018-06-03T12:37:06.064Z,27.00
2018-06-03T12:38:10.908Z,27.00
2018-06-03T12:39:07.977Z,27.00
2018-06-03T12:40:05.425Z,27.00
2018-06-03T12:41:11.265Z,27.00
2018-06-03T12:42:10.920Z,27.00
2018-06-03T12:43:05.411Z,27.00
2018-06-03T12:44:08.022Z,27.20
2018-06-03T12:45:08.793Z,27.20
2018-06-03T12:46:05.364Z,27.20
2018-06-03T12:47:05.460Z,27.30
2018-06-03T12:48:10.499Z,27.40
2018-06-03T12:49:11.157Z,27.50
2018-06-03T12:50:06.277Z,27.40
2018-06-03T12:51:06.483Z,27.50
2018-06-03T12:52:10.436Z,27.50